sensor_id;sensor_type;location;lat;lon;timestamp;temperature;humidity
5576;DHT22;2810;50.134;8.626;2023-03-11T00:01:29;3.10;99.90
5576;DHT22;2810;50.134;8.626;2023-03-11T00:03:55;3.10;99.90
5576;DHT22;2810;50.134;8.626;2023-03-11T00:06:20;3.10;99.90
5576;DHT22;2810;50.134;8.626;2023-03-11T00:08:46;3.00;99.90
5576;DHT22;2810;50.134;8.626;2023-03-11T00:11:11;3.10;99.90
5576;DHT22;2810;50.134;8.626;2023-03-11T00:13:37;3.20;99.90
5576;DHT22;2810;50.134;8.626;2023-03-11T00:16:03;3.10;99.90
5576;DHT22;2810;50.134;8.626;2023-03-11T00:18:29;3.10;99.90
5576;DHT22;2810;50.134;8.626;2023-03-11T00:20:56;3.00;99.90
5576;DHT22;2810;50.134;8.626;2023-03-11T00:23:25;3.00;99.90
5576;DHT22;2810;50.134;8.626;2023-03-11T00:25:51;3.00;99.90
5576;DHT22;2810;50.134;8.626;2023-03-11T00:28:17;3.00;99.90
5576;DHT22;2810;50.134;8.626;2023-03-11T00:30:44;3.00;99.90
5576;DHT22;2810;50.134;8.626;2023-03-11T00:33:10;3.00;99.90
5576;DHT22;2810;50.134;8.626;2023-03-11T00:35:36;3.20;99.90
5576;DHT22;2810;50.134;8.626;2023-03-11T00:38:03;2.90;99.90
5576;DHT22;2810;50.134;8.626;2023-03-11T00:40:30;3.00;99.90
5576;DHT22;2810;50.134;8.626;2023-03-11T00:42:59;3.00;99.90
5576;DHT22;2810;50.134;8.626;2023-03-11T00:45:26;3.50;99.90
5576;DHT22;2810;50.134;8.626;2023-03-11T00:47:52;3.00;99.90
5576;DHT22;2810;50.134;8.626;2023-03-11T00:50:19;3.00;99.90
5576;DHT22;2810;50.134;8.626;2023-03-11T00:52:46;3.60;99.90
5576;DHT22;2810;50.134;8.626;2023-03-11T00:55:12;2.90;99.90
5576;DHT22;2810;50.134;8.626;2023-03-11T00:57:37;2.80;99.90
5576;DHT22;2810;50.134;8.626;2023-03-11T01:00:04;2.80;99.90
5576;DHT22;2810;50.134;8.626;2023-03-11T01:02:31;2.80;99.90
5576;DHT22;2810;50.134;8.626;2023-03-11T01:04:56;2.80;99.90
5576;DHT22;2810;50.134;8.626;2023-03-11T01:07:22;2.70;99.90
5576;DHT22;2810;50.134;8.626;2023-03-11T01:09:47;2.60;99.90
5576;DHT22;2810;50.134;8.626;2023-03-11T01:12:13;2.70;99.90
5576;DHT22;2810;50.134;8.626;2023-03-11T01:14:39;2.80;99.90
5576;DHT22;2810;50.134;8.626;2023-03-11T01:17:05;2.80;99.90
5576;DHT22;2810;50.134;8.626;2023-03-11T01:19:30;2.70;99.90
5576;DHT22;2810;50.134;8.626;2023-03-11T01:21:56;2.70;99.90
5576;DHT22;2810;50.134;8.626;2023-03-11T01:24:21;2.70;99.90
5576;DHT22;2810;50.134;8.626;2023-03-11T01:26:47;2.70;99.90
5576;DHT22;2810;50.134;8.626;2023-03-11T01:29:12;3.40;99.90
5576;DHT22;2810;50.134;8.626;2023-03-11T01:31:38;2.70;99.90
5576;DHT22;2810;50.134;8.626;2023-03-11T01:34:03;2.70;99.90
5576;DHT22;2810;50.134;8.626;2023-03-11T01:36:28;2.70;99.90
5576;DHT22;2810;50.134;8.626;2023-03-11T01:38:54;2.70;99.90
5576;DHT22;2810;50.134;8.626;2023-03-11T01:41:19;2.70;99.90
5576;DHT22;2810;50.134;8.626;2023-03-11T01:43:46;2.70;99.90
5576;DHT22;2810;50.134;8.626;2023-03-11T01:46:18;2.70;99.90
5576;DHT22;2810;50.134;8.626;2023-03-11T01:48:44;2.70;99.90
5576;DHT22;2810;50.134;8.626;2023-03-11T01:51:10;2.60;99.90
5576;DHT22;2810;50.134;8.626;2023-03-11T01:53:36;2.60;99.90
5576;DHT22;2810;50.134;8.626;2023-03-11T01:56:02;2.60;99.90
5576;DHT22;2810;50.134;8.626;2023-03-11T01:58:30;2.70;99.90
5576;DHT22;2810;50.134;8.626;2023-03-11T02:00:56;2.50;99.90
5576;DHT22;2810;50.134;8.626;2023-03-11T02:03:25;2.50;99.90
5576;DHT22;2810;50.134;8.626;2023-03-11T02:05:51;2.40;99.90
5576;DHT22;2810;50.134;8.626;2023-03-11T02:08:18;2.50;99.90
5576;DHT22;2810;50.134;8.626;2023-03-11T02:10:43;2.50;99.90
5576;DHT22;2810;50.134;8.626;2023-03-11T02:13:10;2.50;99.90
5576;DHT22;2810;50.134;8.626;2023-03-11T02:15:35;2.60;99.90
5576;DHT22;2810;50.134;8.626;2023-03-11T02:18:04;2.60;99.90
5576;DHT22;2810;50.134;8.626;2023-03-11T02:20:37;2.70;99.90
5576;DHT22;2810;50.134;8.626;2023-03-11T02:23:03;2.60;99.90
5576;DHT22;2810;50.134;8.626;2023-03-11T02:25:40;3.20;99.90
5576;DHT22;2810;50.134;8.626;2023-03-11T02:28:08;2.70;99.90
5576;DHT22;2810;50.134;8.626;2023-03-11T02:30:34;2.70;99.90
5576;DHT22;2810;50.134;8.626;2023-03-11T02:33:00;2.70;99.90
5576;DHT22;2810;50.134;8.626;2023-03-11T02:35:27;2.30;99.90
5576;DHT22;2810;50.134;8.626;2023-03-11T02:37:53;2.80;99.90
5576;DHT22;2810;50.134;8.626;2023-03-11T02:42:53;2.60;99.90
5576;DHT22;2810;50.134;8.626;2023-03-11T02:45:19;2.60;99.90
5576;DHT22;2810;50.134;8.626;2023-03-11T02:47:46;2.80;99.90
5576;DHT22;2810;50.134;8.626;2023-03-11T02:50:12;2.70;99.90
5576;DHT22;2810;50.134;8.626;2023-03-11T02:52:39;2.50;99.90
5576;DHT22;2810;50.134;8.626;2023-03-11T02:55:05;2.50;99.90
5576;DHT22;2810;50.134;8.626;2023-03-11T02:57:31;2.40;99.90
5576;DHT22;2810;50.134;8.626;2023-03-11T02:59:56;2.40;99.90
5576;DHT22;2810;50.134;8.626;2023-03-11T03:02:24;2.40;99.90
5576;DHT22;2810;50.134;8.626;2023-03-11T03:04:49;2.40;99.90
5576;DHT22;2810;50.134;8.626;2023-03-11T03:07:15;2.40;99.90
5576;DHT22;2810;50.134;8.626;2023-03-11T03:09:40;2.30;99.90
5576;DHT22;2810;50.134;8.626;2023-03-11T03:12:05;3.20;99.90
5576;DHT22;2810;50.134;8.626;2023-03-11T03:14:31;2.40;99.90
5576;DHT22;2810;50.134;8.626;2023-03-11T03:16:57;2.90;99.90
5576;DHT22;2810;50.134;8.626;2023-03-11T03:19:22;2.40;99.90
5576;DHT22;2810;50.134;8.626;2023-03-11T03:21:48;2.40;99.90
5576;DHT22;2810;50.134;8.626;2023-03-11T03:24:14;2.80;99.90
5576;DHT22;2810;50.134;8.626;2023-03-11T03:26:39;1.70;99.90
5576;DHT22;2810;50.134;8.626;2023-03-11T03:29:04;2.30;99.90
5576;DHT22;2810;50.134;8.626;2023-03-11T03:31:30;3.40;99.90
5576;DHT22;2810;50.134;8.626;2023-03-11T03:33:55;2.70;99.90
5576;DHT22;2810;50.134;8.626;2023-03-11T03:36:21;2.40;99.90
5576;DHT22;2810;50.134;8.626;2023-03-11T03:38:46;2.40;99.90
5576;DHT22;2810;50.134;8.626;2023-03-11T03:41:12;2.40;99.90
5576;DHT22;2810;50.134;8.626;2023-03-11T03:43:38;2.30;99.90
5576;DHT22;2810;50.134;8.626;2023-03-11T03:46:03;2.30;99.90
5576;DHT22;2810;50.134;8.626;2023-03-11T03:48:29;3.10;99.90
5576;DHT22;2810;50.134;8.626;2023-03-11T03:50:55;2.30;99.90
5576;DHT22;2810;50.134;8.626;2023-03-11T03:53:20;2.40;99.90
5576;DHT22;2810;50.134;8.626;2023-03-11T03:55:46;2.40;99.90
5576;DHT22;2810;50.134;8.626;2023-03-11T03:58:11;2.80;99.90
5576;DHT22;2810;50.134;8.626;2023-03-11T04:00:37;2.20;99.90
5576;DHT22;2810;50.134;8.626;2023-03-11T04:03:04;2.30;99.90
5576;DHT22;2810;50.134;8.626;2023-03-11T04:05:29;3.10;99.90
5576;DHT22;2810;50.134;8.626;2023-03-11T04:07:54;2.40;99.90
5576;DHT22;2810;50.134;8.626;2023-03-11T04:10:20;2.40;99.90
5576;DHT22;2810;50.134;8.626;2023-03-11T04:12:45;2.90;99.90
5576;DHT22;2810;50.134;8.626;2023-03-11T04:15:11;2.40;99.90
5576;DHT22;2810;50.134;8.626;2023-03-11T04:17:37;3.20;99.90
5576;DHT22;2810;50.134;8.626;2023-03-11T04:20:03;2.80;99.90
5576;DHT22;2810;50.134;8.626;2023-03-11T04:22:31;2.50;99.90
5576;DHT22;2810;50.134;8.626;2023-03-11T04:24:56;2.40;99.90
5576;DHT22;2810;50.134;8.626;2023-03-11T04:27:22;2.40;99.90
5576;DHT22;2810;50.134;8.626;2023-03-11T04:29:47;3.10;99.90
5576;DHT22;2810;50.134;8.626;2023-03-11T04:32:13;2.20;99.90
5576;DHT22;2810;50.134;8.626;2023-03-11T04:34:38;2.50;99.90
5576;DHT22;2810;50.134;8.626;2023-03-11T04:37:04;2.50;99.90
5576;DHT22;2810;50.134;8.626;2023-03-11T04:39:29;3.40;99.90
5576;DHT22;2810;50.134;8.626;2023-03-11T04:41:55;2.70;99.90
5576;DHT22;2810;50.134;8.626;2023-03-11T04:44:20;2.90;99.90
5576;DHT22;2810;50.134;8.626;2023-03-11T04:46:46;2.50;99.90
5576;DHT22;2810;50.134;8.626;2023-03-11T04:49:11;2.50;99.90
5576;DHT22;2810;50.134;8.626;2023-03-11T04:51:36;2.90;99.90
5576;DHT22;2810;50.134;8.626;2023-03-11T04:54:02;3.00;99.90
5576;DHT22;2810;50.134;8.626;2023-03-11T04:56:27;2.50;99.90
5576;DHT22;2810;50.134;8.626;2023-03-11T04:58:53;2.40;99.90
5576;DHT22;2810;50.134;8.626;2023-03-11T05:01:18;2.50;99.90
5576;DHT22;2810;50.134;8.626;2023-03-11T05:03:44;2.50;99.90
5576;DHT22;2810;50.134;8.626;2023-03-11T05:06:10;2.40;99.90
5576;DHT22;2810;50.134;8.626;2023-03-11T05:08:36;2.40;99.90
5576;DHT22;2810;50.134;8.626;2023-03-11T05:11:01;2.40;99.90
5576;DHT22;2810;50.134;8.626;2023-03-11T05:13:26;2.40;99.90
5576;DHT22;2810;50.134;8.626;2023-03-11T05:15:52;2.40;99.90
5576;DHT22;2810;50.134;8.626;2023-03-11T05:18:17;2.40;99.90
5576;DHT22;2810;50.134;8.626;2023-03-11T05:20:43;2.50;99.90
5576;DHT22;2810;50.134;8.626;2023-03-11T05:23:08;2.50;99.90
5576;DHT22;2810;50.134;8.626;2023-03-11T05:25:34;1.90;99.90
5576;DHT22;2810;50.134;8.626;2023-03-11T05:28:00;3.10;99.90
5576;DHT22;2810;50.134;8.626;2023-03-11T05:30:25;2.50;99.90
5576;DHT22;2810;50.134;8.626;2023-03-11T05:32:51;2.60;99.90
5576;DHT22;2810;50.134;8.626;2023-03-11T05:35:16;2.60;99.90
5576;DHT22;2810;50.134;8.626;2023-03-11T05:37:42;2.70;99.90
5576;DHT22;2810;50.134;8.626;2023-03-11T05:40:09;3.10;99.90
5576;DHT22;2810;50.134;8.626;2023-03-11T05:42:35;2.60;99.90
5576;DHT22;2810;50.134;8.626;2023-03-11T05:45:00;2.80;99.90
5576;DHT22;2810;50.134;8.626;2023-03-11T05:47:26;2.50;99.90
5576;DHT22;2810;50.134;8.626;2023-03-11T05:49:51;2.50;99.90
5576;DHT22;2810;50.134;8.626;2023-03-11T05:52:16;2.50;99.90
5576;DHT22;2810;50.134;8.626;2023-03-11T05:54:42;2.50;99.90
5576;DHT22;2810;50.134;8.626;2023-03-11T05:57:07;1.70;99.90
5576;DHT22;2810;50.134;8.626;2023-03-11T05:59:33;2.50;99.90
5576;DHT22;2810;50.134;8.626;2023-03-11T06:02:00;2.40;99.90
5576;DHT22;2810;50.134;8.626;2023-03-11T06:04:25;2.40;99.90
5576;DHT22;2810;50.134;8.626;2023-03-11T06:06:51;2.60;99.90
5576;DHT22;2810;50.134;8.626;2023-03-11T06:09:16;2.80;99.90
5576;DHT22;2810;50.134;8.626;2023-03-11T06:11:42;2.40;99.90
5576;DHT22;2810;50.134;8.626;2023-03-11T06:14:11;2.90;99.90
5576;DHT22;2810;50.134;8.626;2023-03-11T06:16:37;2.40;99.90
5576;DHT22;2810;50.134;8.626;2023-03-11T06:19:02;2.60;99.90
5576;DHT22;2810;50.134;8.626;2023-03-11T06:21:28;2.50;99.90
5576;DHT22;2810;50.134;8.626;2023-03-11T06:23:53;2.40;99.90
5576;DHT22;2810;50.134;8.626;2023-03-11T06:26:19;2.40;99.90
5576;DHT22;2810;50.134;8.626;2023-03-11T06:28:45;2.50;99.90
5576;DHT22;2810;50.134;8.626;2023-03-11T06:31:13;2.50;99.90
5576;DHT22;2810;50.134;8.626;2023-03-11T06:33:39;2.60;99.90
5576;DHT22;2810;50.134;8.626;2023-03-11T06:36:05;3.30;99.90
5576;DHT22;2810;50.134;8.626;2023-03-11T06:38:31;2.60;99.90
5576;DHT22;2810;50.134;8.626;2023-03-11T06:41:00;2.60;99.90
5576;DHT22;2810;50.134;8.626;2023-03-11T06:43:26;3.10;99.90
5576;DHT22;2810;50.134;8.626;2023-03-11T06:45:51;3.30;99.90
5576;DHT22;2810;50.134;8.626;2023-03-11T06:48:17;3.30;99.90
5576;DHT22;2810;50.134;8.626;2023-03-11T06:50:42;2.70;99.90
5576;DHT22;2810;50.134;8.626;2023-03-11T06:53:08;3.30;99.90
5576;DHT22;2810;50.134;8.626;2023-03-11T06:55:34;2.90;99.90
5576;DHT22;2810;50.134;8.626;2023-03-11T06:57:59;3.60;99.90
5576;DHT22;2810;50.134;8.626;2023-03-11T07:00:25;3.10;99.90
5576;DHT22;2810;50.134;8.626;2023-03-11T07:02:50;3.10;99.90
5576;DHT22;2810;50.134;8.626;2023-03-11T07:05:16;3.10;99.90
5576;DHT22;2810;50.134;8.626;2023-03-11T07:07:41;3.30;99.90
5576;DHT22;2810;50.134;8.626;2023-03-11T07:10:07;3.40;99.90
5576;DHT22;2810;50.134;8.626;2023-03-11T07:12:33;3.80;99.90
5576;DHT22;2810;50.134;8.626;2023-03-11T07:14:58;4.40;99.90
5576;DHT22;2810;50.134;8.626;2023-03-11T07:17:24;4.80;99.90
5576;DHT22;2810;50.134;8.626;2023-03-11T07:19:50;5.20;99.90
5576;DHT22;2810;50.134;8.626;2023-03-11T07:22:16;6.10;99.90
5576;DHT22;2810;50.134;8.626;2023-03-11T07:24:45;5.90;99.90
5576;DHT22;2810;50.134;8.626;2023-03-11T07:27:11;6.20;99.90
5576;DHT22;2810;50.134;8.626;2023-03-11T07:29:37;6.60;99.90
5576;DHT22;2810;50.134;8.626;2023-03-11T07:32:02;8.10;99.90
5576;DHT22;2810;50.134;8.626;2023-03-11T07:34:28;8.60;99.90
5576;DHT22;2810;50.134;8.626;2023-03-11T07:36:53;10.30;93.60
5576;DHT22;2810;50.134;8.626;2023-03-11T07:39:19;10.80;85.80
5576;DHT22;2810;50.134;8.626;2023-03-11T07:41:44;10.90;78.70
5576;DHT22;2810;50.134;8.626;2023-03-11T07:44:10;11.30;79.60
5576;DHT22;2810;50.134;8.626;2023-03-11T07:46:36;11.70;73.20
5576;DHT22;2810;50.134;8.626;2023-03-11T07:49:01;12.40;71.90
5576;DHT22;2810;50.134;8.626;2023-03-11T07:51:28;12.50;70.20
5576;DHT22;2810;50.134;8.626;2023-03-11T07:53:55;12.60;69.70
5576;DHT22;2810;50.134;8.626;2023-03-11T07:56:21;12.80;68.20
5576;DHT22;2810;50.134;8.626;2023-03-11T07:58:48;12.10;66.60
5576;DHT22;2810;50.134;8.626;2023-03-11T08:01:14;11.20;70.20
5576;DHT22;2810;50.134;8.626;2023-03-11T08:03:41;10.70;71.70
5576;DHT22;2810;50.134;8.626;2023-03-11T08:06:13;10.20;72.70
5576;DHT22;2810;50.134;8.626;2023-03-11T08:08:39;9.30;80.50
5576;DHT22;2810;50.134;8.626;2023-03-11T08:11:04;10.10;82.60
5576;DHT22;2810;50.134;8.626;2023-03-11T08:13:31;9.00;84.20
5576;DHT22;2810;50.134;8.626;2023-03-11T08:15:57;9.10;85.60
5576;DHT22;2810;50.134;8.626;2023-03-11T08:18:22;9.30;85.90
5576;DHT22;2810;50.134;8.626;2023-03-11T08:20:48;9.60;82.60
5576;DHT22;2810;50.134;8.626;2023-03-11T08:23:14;10.00;79.20
5576;DHT22;2810;50.134;8.626;2023-03-11T08:25:40;10.20;75.60
5576;DHT22;2810;50.134;8.626;2023-03-11T08:28:06;10.70;74.80
5576;DHT22;2810;50.134;8.626;2023-03-11T08:30:32;11.50;71.40
5576;DHT22;2810;50.134;8.626;2023-03-11T08:32:57;12.20;69.60
5576;DHT22;2810;50.134;8.626;2023-03-11T08:35:23;12.30;66.10
5576;DHT22;2810;50.134;8.626;2023-03-11T08:37:48;12.60;61.40
5576;DHT22;2810;50.134;8.626;2023-03-11T08:40:14;13.00;61.10
5576;DHT22;2810;50.134;8.626;2023-03-11T08:42:39;13.50;59.90
5576;DHT22;2810;50.134;8.626;2023-03-11T08:45:05;13.70;57.40
5576;DHT22;2810;50.134;8.626;2023-03-11T08:47:34;13.60;57.90
5576;DHT22;2810;50.134;8.626;2023-03-11T08:50:00;12.50;59.60
5576;DHT22;2810;50.134;8.626;2023-03-11T08:52:26;11.40;61.80
5576;DHT22;2810;50.134;8.626;2023-03-11T08:54:51;10.10;69.60
5576;DHT22;2810;50.134;8.626;2023-03-11T08:57:17;8.60;77.20
5576;DHT22;2810;50.134;8.626;2023-03-11T08:59:42;8.30;80.50
5576;DHT22;2810;50.134;8.626;2023-03-11T09:02:08;7.90;86.60
5576;DHT22;2810;50.134;8.626;2023-03-11T09:04:34;7.10;91.60
5576;DHT22;2810;50.134;8.626;2023-03-11T09:06:59;6.80;91.60
5576;DHT22;2810;50.134;8.626;2023-03-11T09:09:25;6.60;92.40
5576;DHT22;2810;50.134;8.626;2023-03-11T09:11:50;6.30;93.70
5576;DHT22;2810;50.134;8.626;2023-03-11T09:14:16;5.80;95.80
5576;DHT22;2810;50.134;8.626;2023-03-11T09:16:41;5.50;97.00
5576;DHT22;2810;50.134;8.626;2023-03-11T09:19:07;5.40;96.90
5576;DHT22;2810;50.134;8.626;2023-03-11T09:21:33;6.00;96.70
5576;DHT22;2810;50.134;8.626;2023-03-11T09:23:59;6.10;98.20
5576;DHT22;2810;50.134;8.626;2023-03-11T09:26:25;5.20;96.70
5576;DHT22;2810;50.134;8.626;2023-03-11T09:28:50;6.90;93.90
5576;DHT22;2810;50.134;8.626;2023-03-11T09:31:16;6.60;93.20
5576;DHT22;2810;50.134;8.626;2023-03-11T09:33:42;6.40;93.60
5576;DHT22;2810;50.134;8.626;2023-03-11T09:36:12;6.60;93.30
5576;DHT22;2810;50.134;8.626;2023-03-11T09:38:37;6.10;95.10
5576;DHT22;2810;50.134;8.626;2023-03-11T09:48:47;11.80;69.30
5576;DHT22;2810;50.134;8.626;2023-03-11T09:51:15;12.70;61.20
5576;DHT22;2810;50.134;8.626;2023-03-11T09:53:43;14.10;57.60
5576;DHT22;2810;50.134;8.626;2023-03-11T09:56:14;15.10;53.10
5576;DHT22;2810;50.134;8.626;2023-03-11T09:58:48;14.60;52.70
5576;DHT22;2810;50.134;8.626;2023-03-11T10:01:34;12.20;52.80
5576;DHT22;2810;50.134;8.626;2023-03-11T10:04:05;10.80;57.80
5576;DHT22;2810;50.134;8.626;2023-03-11T10:06:32;9.60;62.20
5576;DHT22;2810;50.134;8.626;2023-03-11T10:13:52;7.70;68.10
5576;DHT22;2810;50.134;8.626;2023-03-11T10:19:12;7.00;76.50
5576;DHT22;2810;50.134;8.626;2023-03-11T10:21:43;7.00;76.50
5576;DHT22;2810;50.134;8.626;2023-03-11T10:24:32;8.20;68.70
5576;DHT22;2810;50.134;8.626;2023-03-11T10:27:01;9.60;66.50
5576;DHT22;2810;50.134;8.626;2023-03-11T10:37:02;15.30;48.90
5576;DHT22;2810;50.134;8.626;2023-03-11T10:39:30;15.40;47.30
5576;DHT22;2810;50.134;8.626;2023-03-11T10:41:56;16.00;47.50
5576;DHT22;2810;50.134;8.626;2023-03-11T10:44:30;16.10;45.00
5576;DHT22;2810;50.134;8.626;2023-03-11T10:46:56;14.90;46.50
5576;DHT22;2810;50.134;8.626;2023-03-11T10:49:22;13.20;48.50
5576;DHT22;2810;50.134;8.626;2023-03-11T10:51:48;11.90;51.10
5576;DHT22;2810;50.134;8.626;2023-03-11T10:54:28;10.60;54.00
5576;DHT22;2810;50.134;8.626;2023-03-11T10:56:55;9.70;56.30
5576;DHT22;2810;50.134;8.626;2023-03-11T11:01:53;8.30;66.00
5576;DHT22;2810;50.134;8.626;2023-03-11T11:04:38;7.80;72.10
5576;DHT22;2810;50.134;8.626;2023-03-11T11:07:18;7.50;75.30
5576;DHT22;2810;50.134;8.626;2023-03-11T11:09:44;7.30;76.80
5576;DHT22;2810;50.134;8.626;2023-03-11T11:12:13;6.90;77.50
5576;DHT22;2810;50.134;8.626;2023-03-11T11:14:50;6.60;84.70
5576;DHT22;2810;50.134;8.626;2023-03-11T11:19:45;6.70;81.40
5576;DHT22;2810;50.134;8.626;2023-03-11T11:22:12;6.80;81.90
5576;DHT22;2810;50.134;8.626;2023-03-11T11:24:42;6.80;83.90
5576;DHT22;2810;50.134;8.626;2023-03-11T11:29:42;6.70;81.70
5576;DHT22;2810;50.134;8.626;2023-03-11T11:34:39;6.50;86.30
5576;DHT22;2810;50.134;8.626;2023-03-11T11:37:05;6.50;82.80
5576;DHT22;2810;50.134;8.626;2023-03-11T11:39:32;6.40;83.50
5576;DHT22;2810;50.134;8.626;2023-03-11T11:42:01;6.20;78.40
5576;DHT22;2810;50.134;8.626;2023-03-11T11:44:30;6.00;79.90
5576;DHT22;2810;50.134;8.626;2023-03-11T11:46:59;5.90;82.90
5576;DHT22;2810;50.134;8.626;2023-03-11T11:49:28;5.90;81.40
5576;DHT22;2810;50.134;8.626;2023-03-11T11:51:58;5.80;82.60
5576;DHT22;2810;50.134;8.626;2023-03-11T11:54:34;5.40;85.70
5576;DHT22;2810;50.134;8.626;2023-03-11T11:57:12;5.80;85.50
5576;DHT22;2810;50.134;8.626;2023-03-11T11:59:38;5.70;83.30
5576;DHT22;2810;50.134;8.626;2023-03-11T12:04:53;5.90;90.20
5576;DHT22;2810;50.134;8.626;2023-03-11T12:09:52;6.60;90.60
5576;DHT22;2810;50.134;8.626;2023-03-11T12:12:26;6.40;92.00
5576;DHT22;2810;50.134;8.626;2023-03-11T12:14:56;6.30;96.10
5576;DHT22;2810;50.134;8.626;2023-03-11T12:17:25;6.70;99.40
5576;DHT22;2810;50.134;8.626;2023-03-11T12:19:56;7.10;99.90
5576;DHT22;2810;50.134;8.626;2023-03-11T12:22:32;6.90;90.40
5576;DHT22;2810;50.134;8.626;2023-03-11T12:27:40;6.40;88.60
5576;DHT22;2810;50.134;8.626;2023-03-11T12:30:12;6.30;90.40
5576;DHT22;2810;50.134;8.626;2023-03-11T12:32:40;6.40;90.20
5576;DHT22;2810;50.134;8.626;2023-03-11T12:35:29;6.40;87.10
5576;DHT22;2810;50.134;8.626;2023-03-11T12:37:55;6.40;84.80
5576;DHT22;2810;50.134;8.626;2023-03-11T12:43:21;6.80;87.70
5576;DHT22;2810;50.134;8.626;2023-03-11T12:45:48;6.80;82.20
5576;DHT22;2810;50.134;8.626;2023-03-11T12:48:24;6.70;82.90
5576;DHT22;2810;50.134;8.626;2023-03-11T12:50:49;6.90;84.40
5576;DHT22;2810;50.134;8.626;2023-03-11T12:53:16;7.20;81.40
5576;DHT22;2810;50.134;8.626;2023-03-11T12:55:52;7.50;78.80
5576;DHT22;2810;50.134;8.626;2023-03-11T12:58:35;7.70;76.60
5576;DHT22;2810;50.134;8.626;2023-03-11T13:01:13;7.80;76.30
5576;DHT22;2810;50.134;8.626;2023-03-11T13:03:46;7.70;75.10
5576;DHT22;2810;50.134;8.626;2023-03-11T13:08:48;7.10;75.80
5576;DHT22;2810;50.134;8.626;2023-03-11T13:16:42;6.70;76.20
5576;DHT22;2810;50.134;8.626;2023-03-11T13:21:52;6.30;79.20
5576;DHT22;2810;50.134;8.626;2023-03-11T13:26:45;6.20;78.90
5576;DHT22;2810;50.134;8.626;2023-03-11T13:29:23;6.20;81.70
5576;DHT22;2810;50.134;8.626;2023-03-11T13:31:56;6.30;82.10
5576;DHT22;2810;50.134;8.626;2023-03-11T13:34:47;6.30;81.20
5576;DHT22;2810;50.134;8.626;2023-03-11T13:39:59;6.30;77.60
5576;DHT22;2810;50.134;8.626;2023-03-11T13:44:51;6.50;74.10
5576;DHT22;2810;50.134;8.626;2023-03-11T13:47:17;6.60;76.10
5576;DHT22;2810;50.134;8.626;2023-03-11T13:52:16;6.90;76.50
5576;DHT22;2810;50.134;8.626;2023-03-11T13:57:14;7.20;73.30
5576;DHT22;2810;50.134;8.626;2023-03-11T13:59:43;7.40;72.40
5576;DHT22;2810;50.134;8.626;2023-03-11T14:02:15;7.40;68.50
5576;DHT22;2810;50.134;8.626;2023-03-11T14:04:43;7.40;70.60
5576;DHT22;2810;50.134;8.626;2023-03-11T14:07:30;7.40;71.30
5576;DHT22;2810;50.134;8.626;2023-03-11T14:12:36;7.20;71.50
5576;DHT22;2810;50.134;8.626;2023-03-11T14:15:03;7.20;71.60
5576;DHT22;2810;50.134;8.626;2023-03-11T14:17:29;7.20;70.90
5576;DHT22;2810;50.134;8.626;2023-03-11T14:22:42;7.10;70.80
5576;DHT22;2810;50.134;8.626;2023-03-11T14:25:08;6.90;71.00
5576;DHT22;2810;50.134;8.626;2023-03-11T14:27:36;6.90;71.20
5576;DHT22;2810;50.134;8.626;2023-03-11T14:30:03;6.60;70.80
5576;DHT22;2810;50.134;8.626;2023-03-11T14:32:29;6.40;68.50
5576;DHT22;2810;50.134;8.626;2023-03-11T14:34:55;6.70;72.90
5576;DHT22;2810;50.134;8.626;2023-03-11T14:37:25;6.30;72.30
5576;DHT22;2810;50.134;8.626;2023-03-11T14:39:51;6.30;77.30
5576;DHT22;2810;50.134;8.626;2023-03-11T14:42:24;6.20;74.50
5576;DHT22;2810;50.134;8.626;2023-03-11T14:45:11;6.20;76.00
5576;DHT22;2810;50.134;8.626;2023-03-11T14:50:04;6.60;75.60
5576;DHT22;2810;50.134;8.626;2023-03-11T14:52:40;6.70;78.60
5576;DHT22;2810;50.134;8.626;2023-03-11T14:55:10;6.60;73.80
5576;DHT22;2810;50.134;8.626;2023-03-11T14:57:41;6.70;74.50
5576;DHT22;2810;50.134;8.626;2023-03-11T15:00:14;6.80;72.00
5576;DHT22;2810;50.134;8.626;2023-03-11T15:02:42;6.80;71.70
5576;DHT22;2810;50.134;8.626;2023-03-11T15:05:19;6.70;73.20
5576;DHT22;2810;50.134;8.626;2023-03-11T15:07:48;6.70;76.50
5576;DHT22;2810;50.134;8.626;2023-03-11T15:10:14;6.90;77.10
5576;DHT22;2810;50.134;8.626;2023-03-11T15:12:40;7.10;71.90
5576;DHT22;2810;50.134;8.626;2023-03-11T15:15:23;7.10;73.00
5576;DHT22;2810;50.134;8.626;2023-03-11T15:17:56;7.20;76.90
5576;DHT22;2810;50.134;8.626;2023-03-11T15:20:23;7.10;76.60
5576;DHT22;2810;50.134;8.626;2023-03-11T15:22:52;6.90;75.30
5576;DHT22;2810;50.134;8.626;2023-03-11T15:25:20;6.90;75.20
5576;DHT22;2810;50.134;8.626;2023-03-11T15:27:46;6.90;74.30
5576;DHT22;2810;50.134;8.626;2023-03-11T15:32:46;6.90;72.80
5576;DHT22;2810;50.134;8.626;2023-03-11T15:35:28;6.90;75.20
5576;DHT22;2810;50.134;8.626;2023-03-11T15:38:10;6.90;75.90
5576;DHT22;2810;50.134;8.626;2023-03-11T15:40:36;6.80;73.40
5576;DHT22;2810;50.134;8.626;2023-03-11T15:43:10;6.70;71.80
5576;DHT22;2810;50.134;8.626;2023-03-11T15:45:41;7.40;76.40
5576;DHT22;2810;50.134;8.626;2023-03-11T15:48:11;6.40;70.30
5576;DHT22;2810;50.134;8.626;2023-03-11T15:50:45;6.20;73.40
5576;DHT22;2810;50.134;8.626;2023-03-11T15:53:10;6.00;78.30
5576;DHT22;2810;50.134;8.626;2023-03-11T15:55:36;5.90;77.00
5576;DHT22;2810;50.134;8.626;2023-03-11T15:58:02;5.80;78.70
5576;DHT22;2810;50.134;8.626;2023-03-11T16:00:29;5.70;78.40
5576;DHT22;2810;50.134;8.626;2023-03-11T16:02:54;5.70;80.50
5576;DHT22;2810;50.134;8.626;2023-03-11T16:05:21;5.60;82.00
5576;DHT22;2810;50.134;8.626;2023-03-11T16:07:47;5.50;82.00
5576;DHT22;2810;50.134;8.626;2023-03-11T16:10:14;5.50;82.70
5576;DHT22;2810;50.134;8.626;2023-03-11T16:12:40;5.50;80.90
5576;DHT22;2810;50.134;8.626;2023-03-11T16:15:20;5.50;77.10
5576;DHT22;2810;50.134;8.626;2023-03-11T16:17:49;5.40;77.10
5576;DHT22;2810;50.134;8.626;2023-03-11T16:20:15;5.30;77.30
5576;DHT22;2810;50.134;8.626;2023-03-11T16:22:41;5.40;84.00
5576;DHT22;2810;50.134;8.626;2023-03-11T16:25:06;5.10;82.50
5576;DHT22;2810;50.134;8.626;2023-03-11T16:27:37;5.10;82.20
5576;DHT22;2810;50.134;8.626;2023-03-11T16:30:03;5.10;83.50
5576;DHT22;2810;50.134;8.626;2023-03-11T16:32:28;5.00;83.40
5576;DHT22;2810;50.134;8.626;2023-03-11T16:34:53;4.90;79.80
5576;DHT22;2810;50.134;8.626;2023-03-11T16:37:19;4.90;82.00
5576;DHT22;2810;50.134;8.626;2023-03-11T16:39:45;4.90;88.00
5576;DHT22;2810;50.134;8.626;2023-03-11T16:42:11;4.90;84.80
5576;DHT22;2810;50.134;8.626;2023-03-11T16:44:37;5.40;85.00
5576;DHT22;2810;50.134;8.626;2023-03-11T16:47:02;4.90;86.80
5576;DHT22;2810;50.134;8.626;2023-03-11T16:49:28;4.90;83.90
5576;DHT22;2810;50.134;8.626;2023-03-11T16:51:53;4.80;84.60
5576;DHT22;2810;50.134;8.626;2023-03-11T16:54:19;5.30;84.20
5576;DHT22;2810;50.134;8.626;2023-03-11T16:56:44;4.90;83.60
5576;DHT22;2810;50.134;8.626;2023-03-11T16:59:10;4.90;87.50
5576;DHT22;2810;50.134;8.626;2023-03-11T17:01:35;4.80;83.10
5576;DHT22;2810;50.134;8.626;2023-03-11T17:04:04;4.80;81.50
5576;DHT22;2810;50.134;8.626;2023-03-11T17:06:30;4.80;83.80
5576;DHT22;2810;50.134;8.626;2023-03-11T17:08:55;4.80;80.70
5576;DHT22;2810;50.134;8.626;2023-03-11T17:11:21;4.70;81.80
5576;DHT22;2810;50.134;8.626;2023-03-11T17:13:47;4.70;87.90
5576;DHT22;2810;50.134;8.626;2023-03-11T17:16:12;4.60;85.10
5576;DHT22;2810;50.134;8.626;2023-03-11T17:18:38;4.50;85.20
5576;DHT22;2810;50.134;8.626;2023-03-11T17:21:04;4.50;86.20
5576;DHT22;2810;50.134;8.626;2023-03-11T17:23:30;4.00;92.10
5576;DHT22;2810;50.134;8.626;2023-03-11T17:25:55;4.60;96.20
5576;DHT22;2810;50.134;8.626;2023-03-11T17:28:20;4.80;99.10
5576;DHT22;2810;50.134;8.626;2023-03-11T17:30:46;4.80;95.70
5576;DHT22;2810;50.134;8.626;2023-03-11T17:33:11;4.70;94.10
5576;DHT22;2810;50.134;8.626;2023-03-11T17:35:37;4.60;93.60
5576;DHT22;2810;50.134;8.626;2023-03-11T17:38:02;4.50;93.70